createdAt,value
2023-02-22T00:02:11.083Z,14.57
2023-02-22T00:04:39.806Z,16.55
2023-02-22T00:07:07.612Z,16.42
2023-02-22T00:09:34.620Z,15.85
2023-02-22T00:12:01.570Z,16.88
2023-02-22T00:14:28.552Z,17.70
2023-02-22T00:16:59.438Z,13.18
2023-02-22T00:19:28.097Z,13.27
2023-02-22T00:21:55.352Z,13.70
2023-02-22T00:24:24.815Z,14.13
2023-02-22T00:26:55.832Z,15.77
2023-02-22T00:29:26.404Z,16.08
2023-02-22T00:31:54.017Z,15.25
2023-02-22T00:34:23.532Z,15.55
2023-02-22T00:36:50.714Z,18.27
2023-02-22T00:39:18.177Z,18.92
2023-02-22T00:41:45.594Z,18.83
2023-02-22T00:44:12.863Z,18.48
2023-02-22T00:46:40.104Z,22.13
2023-02-22T00:49:07.155Z,17.73
2023-02-22T00:51:34.097Z,17.45
2023-02-22T00:54:01.720Z,20.63
2023-02-22T00:56:29.076Z,19.55
2023-02-22T00:58:56.281Z,25.33
2023-02-22T01:01:24.299Z,24.23
2023-02-22T01:03:52.127Z,25.50
2023-02-22T01:06:20.393Z,23.50
2023-02-22T01:08:49.296Z,24.15
2023-02-22T01:11:18.425Z,26.90
2023-02-22T01:13:45.739Z,26.52
2023-02-22T01:16:13.768Z,25.60
2023-02-22T01:18:40.848Z,27.67
2023-02-22T01:21:08.576Z,27.20
2023-02-22T01:23:35.825Z,17.88
2023-02-22T01:26:06.046Z,30.45
2023-02-22T01:28:34.570Z,31.27
2023-02-22T01:31:03.234Z,27.58
2023-02-22T01:33:30.897Z,26.02
2023-02-22T01:35:58.006Z,28.00
2023-02-22T01:38:25.023Z,28.48
2023-02-22T01:40:52.263Z,27.33
2023-02-22T01:43:20.573Z,28.45
2023-02-22T01:46:27.501Z,26.42
2023-02-22T01:49:02.674Z,26.33
2023-02-22T01:51:37.847Z,24.48
2023-02-22T01:54:23.389Z,20.63
2023-02-22T01:57:14.783Z,19.65
2023-02-22T01:59:52.836Z,21.00
2023-02-22T02:02:21.705Z,21.27
2023-02-22T02:04:49.596Z,20.75
2023-02-22T02:07:21.186Z,23.85
2023-02-22T02:10:21.499Z,23.15
2023-02-22T02:12:51.196Z,20.35
2023-02-22T02:15:33.212Z,22.45
2023-02-22T02:18:08.052Z,20.13
2023-02-22T02:21:18.110Z,21.60
2023-02-22T02:24:21.808Z,19.00
2023-02-22T02:27:12.872Z,20.67
2023-02-22T02:30:20.201Z,17.33
2023-02-22T02:32:49.975Z,13.75
2023-02-22T02:35:35.821Z,17.45
2023-02-22T02:38:19.172Z,16.25
2023-02-22T02:40:55.750Z,15.90
2023-02-22T02:44:13.491Z,16.48
2023-02-22T02:47:15.158Z,15.18
2023-02-22T02:50:16.919Z,16.13
2023-02-22T02:52:45.751Z,17.33
2023-02-22T02:55:13.620Z,13.90
2023-02-22T02:57:41.984Z,15.10
2023-02-22T03:00:22.521Z,18.25
2023-02-22T03:03:34.074Z,16.02
2023-02-22T03:06:25.921Z,17.23
2023-02-22T03:09:18.480Z,15.88
2023-02-22T03:12:11.035Z,16.23
2023-02-22T03:14:55.922Z,15.90
2023-02-22T03:17:45.371Z,16.08
2023-02-22T03:20:43.170Z,15.57
2023-02-22T03:23:25.383Z,16.38
2023-02-22T03:26:04.432Z,14.07
2023-02-22T03:28:35.785Z,15.02
2023-02-22T03:31:18.351Z,17.77
2023-02-22T03:33:57.545Z,17.77
2023-02-22T03:36:39.013Z,16.05
2023-02-22T03:39:12.267Z,16.00
2023-02-22T03:41:40.691Z,16.95
2023-02-22T03:44:12.310Z,17.95
2023-02-22T03:46:41.180Z,17.77
2023-02-22T03:49:23.488Z,17.73
2023-02-22T03:51:50.807Z,17.58
2023-02-22T03:54:18.115Z,13.52
2023-02-22T03:56:56.440Z,15.98
2023-02-22T03:59:27.542Z,16.45
2023-02-22T04:01:55.667Z,18.50
2023-02-22T04:04:24.043Z,15.98
2023-02-22T04:06:52.321Z,19.70
2023-02-22T04:09:20.395Z,19.88
2023-02-22T04:11:47.868Z,19.50
2023-02-22T04:14:15.572Z,19.85
2023-02-22T04:16:42.855Z,18.85
2023-02-22T04:19:10.758Z,20.17
2023-02-22T04:21:39.037Z,17.52
2023-02-22T04:24:10.284Z,18.80
2023-02-22T04:26:37.821Z,19.92
2023-02-22T04:29:08.471Z,20.48
2023-02-22T04:31:39.089Z,18.70
2023-02-22T04:34:06.888Z,21.25
2023-02-22T04:36:37.588Z,20.98
2023-02-22T04:39:05.473Z,20.27
2023-02-22T04:41:34.662Z,18.75
2023-02-22T04:44:05.227Z,17.92
2023-02-22T04:46:32.804Z,21.42
2023-02-22T04:48:59.835Z,19.58
2023-02-22T04:51:30.338Z,20.10
2023-02-22T04:54:00.574Z,21.02
2023-02-22T04:56:28.039Z,17.13
2023-02-22T04:58:55.002Z,22.20
2023-02-22T05:01:23.610Z,20.20
2023-02-22T05:03:50.937Z,20.15
2023-02-22T05:06:18.824Z,20.35
2023-02-22T05:08:45.850Z,21.15
2023-02-22T05:11:12.907Z,22.48
2023-02-22T05:13:39.792Z,22.35
2023-02-22T05:16:07.152Z,21.48
2023-02-22T05:18:34.103Z,21.80
2023-02-22T05:21:01.321Z,21.98
2023-02-22T05:23:28.292Z,19.25
2023-02-22T05:25:55.179Z,19.40
2023-02-22T05:28:22.192Z,21.30
2023-02-22T05:30:49.121Z,22.13
2023-02-22T05:33:16.432Z,21.25
2023-02-22T05:35:43.988Z,21.98
2023-02-22T05:38:15.078Z,22.30
2023-02-22T05:40:43.311Z,26.00
2023-02-22T05:43:10.558Z,24.85
2023-02-22T05:45:37.449Z,28.52
2023-02-22T05:48:05.306Z,24.33
2023-02-22T05:50:33.374Z,24.90
2023-02-22T05:53:00.713Z,24.88
2023-02-22T05:55:28.068Z,23.77
2023-02-22T05:57:55.038Z,21.15
2023-02-22T06:00:26.889Z,19.48
2023-02-22T06:03:09.355Z,23.25
2023-02-22T06:05:37.167Z,25.48
2023-02-22T06:08:06.614Z,28.38
2023-02-22T06:10:33.720Z,24.98
2023-02-22T06:13:02.141Z,23.27
2023-02-22T06:15:30.079Z,27.83
2023-02-22T06:17:58.831Z,29.77
2023-02-22T06:20:28.037Z,27.92
2023-02-22T06:22:57.672Z,29.30
2023-02-22T06:25:28.599Z,28.25
2023-02-22T06:27:55.607Z,28.30
2023-02-22T06:30:25.557Z,27.67
2023-02-22T06:32:52.720Z,31.17
2023-02-22T06:35:20.627Z,30.13
2023-02-22T06:37:47.629Z,29.67
2023-02-22T06:40:16.392Z,31.60
2023-02-22T06:42:43.461Z,33.63
2023-02-22T06:45:11.441Z,30.80
2023-02-22T06:47:40.380Z,36.22
2023-02-22T06:50:10.454Z,29.48
2023-02-22T06:52:43.254Z,33.22
2023-02-22T06:55:11.557Z,30.55
2023-02-22T06:57:38.524Z,31.73
2023-02-22T07:00:06.117Z,31.75
2023-02-22T07:02:33.026Z,34.97
2023-02-22T07:04:59.997Z,27.55
2023-02-22T07:07:27.065Z,29.50
2023-02-22T07:09:54.048Z,28.02
2023-02-22T07:12:21.097Z,26.95
2023-02-22T07:14:48.029Z,32.15
2023-02-22T07:17:14.973Z,43.58
2023-02-22T07:19:41.962Z,33.75
2023-02-22T07:22:08.885Z,33.33
2023-02-22T07:24:35.771Z,36.13
2023-02-22T07:27:02.947Z,38.80
2023-02-22T07:29:31.516Z,36.05
2023-02-22T07:31:58.516Z,34.10
2023-02-22T07:34:25.476Z,20.40
2023-02-22T07:36:52.427Z,29.88
2023-02-22T07:39:19.582Z,28.88
2023-02-22T07:41:46.610Z,32.28
2023-02-22T07:44:23.708Z,29.52
2023-02-22T07:46:50.639Z,30.58
2023-02-22T07:49:18.164Z,35.50
2023-02-22T07:51:45.212Z,31.40
2023-02-22T07:54:12.288Z,27.55
2023-02-22T07:56:47.682Z,26.92
2023-02-22T07:59:16.123Z,28.05
2023-02-22T08:01:43.061Z,31.48
2023-02-22T08:04:10.086Z,28.20
2023-02-22T08:06:37.496Z,30.15
2023-02-22T08:09:04.570Z,26.65
2023-02-22T08:11:31.692Z,31.55
2023-02-22T08:13:58.701Z,27.35
2023-02-22T08:16:25.732Z,29.13
2023-02-22T08:18:52.726Z,34.33
2023-02-22T08:21:20.092Z,36.33
2023-02-22T08:23:54.366Z,30.27
2023-02-22T08:26:21.475Z,21.00
2023-02-22T08:28:49.510Z,28.85
2023-02-22T08:31:17.115Z,28.80
2023-02-22T08:33:48.976Z,29.48
2023-02-22T08:36:18.544Z,31.85
2023-02-22T08:38:45.615Z,31.35
2023-02-22T08:41:12.585Z,32.88
2023-02-22T08:43:39.591Z,27.00
2023-02-22T08:46:06.640Z,32.38
2023-02-22T08:48:33.759Z,31.20
2023-02-22T08:51:00.831Z,26.10
2023-02-22T08:53:27.793Z,31.10
2023-02-22T08:55:54.950Z,27.95
2023-02-22T08:58:22.024Z,26.73
2023-02-22T09:00:49.207Z,31.25
2023-02-22T09:03:16.256Z,28.30
2023-02-22T09:05:44.688Z,29.65
2023-02-22T09:08:11.961Z,24.17
2023-02-22T09:10:39.168Z,26.30
2023-02-22T09:13:06.594Z,25.67
2023-02-22T09:15:37.882Z,27.48
2023-02-22T09:18:10.801Z,26.55
2023-02-22T09:20:38.110Z,27.38
2023-02-22T09:23:07.446Z,25.25
2023-02-22T09:25:34.362Z,24.50
2023-02-22T09:28:01.890Z,24.40
2023-02-22T09:30:35.780Z,23.20
2023-02-22T09:33:15.364Z,23.10
2023-02-22T09:35:46.652Z,24.30
2023-02-22T09:38:22.902Z,26.65
2023-02-22T09:41:12.349Z,22.13
2023-02-22T09:43:56.520Z,22.10
2023-02-22T09:46:31.029Z,20.25
2023-02-22T09:49:27.954Z,22.67
2023-02-22T09:52:09.385Z,22.45
2023-02-22T09:55:16.124Z,20.75
2023-02-22T09:57:47.511Z,24.80
2023-02-22T10:00:20.811Z,22.40
2023-02-22T10:03:09.258Z,21.58
2023-02-22T10:05:41.949Z,21.73
2023-02-22T10:08:20.141Z,22.40
2023-02-22T10:10:55.685Z,21.90
2023-02-22T10:13:39.346Z,23.50
2023-02-22T10:16:13.349Z,20.73
2023-02-22T10:18:49.641Z,21.48
2023-02-22T10:21:42.733Z,20.05
2023-02-22T10:24:24.687Z,19.50
2023-02-22T10:26:54.279Z,18.50
2023-02-22T10:29:46.728Z,19.83
2023-02-22T10:32:31.657Z,20.35
2023-02-22T10:35:00.761Z,20.65
2023-02-22T10:37:34.362Z,21.10
2023-02-22T10:40:23.074Z,17.25
2023-02-22T10:42:50.600Z,16.85
2023-02-22T10:45:34.332Z,17.83
2023-02-22T10:48:08.621Z,19.00
2023-02-22T10:50:40.907Z,20.58
2023-02-22T10:53:09.838Z,20.67
2023-02-22T10:55:57.881Z,20.10
2023-02-22T10:58:24.916Z,19.13
2023-02-22T11:00:52.491Z,18.88
2023-02-22T11:03:23.438Z,19.90
2023-02-22T11:05:52.597Z,20.92
2023-02-22T11:08:22.554Z,21.40
2023-02-22T11:10:51.783Z,21.05
2023-02-22T11:13:38.957Z,17.85
2023-02-22T11:16:32.925Z,19.92
2023-02-22T11:19:24.534Z,18.27
2023-02-22T11:21:57.225Z,21.52
2023-02-22T11:24:30.426Z,18.80
2023-02-22T11:27:02.998Z,21.88
2023-02-22T11:29:36.451Z,19.15
2023-02-22T11:32:15.394Z,23.67
2023-02-22T11:34:43.041Z,23.75
2023-02-22T11:37:26.044Z,22.25
2023-02-22T11:40:21.949Z,18.48
2023-02-22T11:43:08.408Z,23.17
2023-02-22T11:45:35.317Z,20.58
2023-02-22T11:48:06.268Z,22.30
2023-02-22T11:51:03.810Z,24.33
2023-02-22T11:54:11.604Z,22.70
2023-02-22T11:56:52.201Z,22.20
2023-02-22T12:00:07.420Z,21.15
2023-02-22T12:03:40.339Z,22.05
2023-02-22T12:06:40.486Z,22.15
2023-02-22T12:09:45.911Z,19.88
2023-02-22T12:12:32.108Z,20.60
2023-02-22T12:18:07.943Z,14.85
2023-02-22T12:20:45.686Z,10.25
2023-02-22T12:23:15.748Z,12.02
2023-02-22T12:25:59.353Z,11.80
2023-02-22T12:28:36.149Z,10.43
2023-02-22T12:31:48.407Z,11.15
2023-02-22T12:34:33.870Z,13.52
2023-02-22T12:37:27.978Z,13.68
2023-02-22T12:40:23.436Z,11.70
2023-02-22T12:43:22.652Z,12.80
2023-02-22T12:46:11.915Z,12.30
2023-02-22T12:49:33.708Z,13.48
2023-02-22T12:52:25.113Z,11.35
2023-02-22T12:55:23.767Z,12.85
2023-02-22T12:58:20.532Z,12.20
2023-02-22T13:01:12.647Z,11.93
2023-02-22T13:03:44.107Z,12.00
2023-02-22T13:06:26.158Z,14.35
2023-02-22T13:08:58.453Z,14.68
2023-02-22T13:12:06.024Z,12.60
2023-02-22T13:15:17.214Z,13.02
2023-02-22T13:18:06.057Z,12.32
2023-02-22T13:20:48.932Z,12.05
2023-02-22T13:23:36.480Z,12.60
2023-02-22T13:26:08.212Z,12.48
2023-02-22T13:29:08.950Z,12.55
2023-02-22T13:31:51.139Z,12.73
2023-02-22T13:35:11.465Z,13.35
2023-02-22T13:37:50.571Z,13.85
2023-02-22T13:40:51.120Z,14.40
2023-02-22T13:43:48.713Z,12.95
2023-02-22T13:46:41.524Z,13.27
2023-02-22T13:49:25.327Z,14.52
2023-02-22T13:52:07.938Z,14.40
2023-02-22T13:54:54.612Z,15.30
2023-02-22T13:57:39.583Z,13.35
2023-02-22T14:00:15.662Z,13.65
2023-02-22T14:03:06.805Z,14.50
2023-02-22T14:05:40.950Z,14.15
2023-02-22T14:08:13.997Z,13.10
2023-02-22T14:10:43.890Z,12.98
2023-02-22T14:13:12.061Z,14.75
2023-02-22T14:15:57.797Z,14.02
2023-02-22T14:19:06.513Z,15.93
2023-02-22T14:21:35.233Z,13.63
2023-02-22T14:24:17.108Z,13.60
2023-02-22T14:26:59.775Z,14.43
2023-02-22T14:29:27.354Z,14.30
2023-02-22T14:32:07.442Z,14.70
2023-02-22T14:34:54.579Z,13.55
2023-02-22T14:37:39.938Z,15.10
2023-02-22T14:40:25.761Z,15.63
2023-02-22T14:43:19.877Z,16.27
2023-02-22T14:45:56.700Z,15.35
2023-02-22T14:48:39.533Z,15.82
2023-02-22T14:51:26.775Z,16.02
2023-02-22T14:54:02.826Z,16.95
2023-02-22T14:59:25.499Z,15.90
2023-02-22T15:02:11.652Z,17.05
2023-02-22T15:04:44.016Z,15.38
2023-02-22T15:07:29.071Z,15.80
2023-02-22T15:10:26.403Z,15.45
2023-02-22T15:13:09.562Z,15.73
2023-02-22T15:15:40.693Z,15.95
2023-02-22T15:18:19.646Z,14.07
2023-02-22T15:20:49.338Z,16.05
2023-02-22T15:23:16.842Z,16.17
2023-02-22T15:25:49.707Z,18.00
2023-02-22T15:28:18.930Z,16.23
2023-02-22T15:30:46.167Z,15.35
2023-02-22T15:33:24.425Z,16.70
2023-02-22T15:35:58.300Z,16.08
2023-02-22T15:38:30.849Z,14.98
2023-02-22T15:41:08.836Z,17.00
2023-02-22T15:43:35.860Z,16.73
2023-02-22T15:46:03.434Z,16.48
2023-02-22T15:48:31.922Z,18.40
2023-02-22T15:51:13.879Z,16.92
2023-02-22T15:53:43.794Z,16.58
2023-02-22T15:56:25.461Z,18.50
2023-02-22T15:59:00.070Z,17.88
2023-02-22T16:01:27.396Z,18.27
2023-02-22T16:03:59.724Z,18.75
2023-02-22T16:06:37.967Z,20.30
2023-02-22T16:09:25.582Z,20.50
2023-02-22T16:12:10.002Z,23.20
2023-02-22T16:14:37.296Z,22.50
2023-02-22T16:17:25.801Z,23.35
2023-02-22T16:19:53.785Z,19.42
2023-02-22T16:22:35.091Z,18.73
2023-02-22T16:25:35.708Z,16.73
2023-02-22T16:28:25.990Z,18.02
2023-02-22T16:30:59.675Z,19.67
2023-02-22T16:33:33.733Z,19.90
2023-02-22T16:36:06.309Z,20.42
2023-02-22T16:38:34.134Z,21.05
2023-02-22T16:41:01.201Z,19.27
2023-02-22T16:43:32.839Z,18.73
2023-02-22T16:46:06.812Z,18.05
2023-02-22T16:48:37.928Z,18.23
2023-02-22T16:51:26.070Z,17.70
2023-02-22T16:53:56.647Z,17.55
2023-02-22T16:56:30.909Z,17.60
2023-02-22T16:59:03.483Z,17.20
2023-02-22T17:01:30.571Z,18.00
2023-02-22T17:03:57.668Z,16.73
2023-02-22T17:06:24.618Z,16.10
2023-02-22T17:08:52.887Z,15.68
2023-02-22T17:11:19.946Z,15.40
2023-02-22T17:13:51.713Z,17.35
2023-02-22T17:16:19.250Z,16.60
2023-02-22T17:18:46.503Z,16.58
2023-02-22T17:21:13.726Z,17.40
2023-02-22T17:23:40.685Z,17.42
2023-02-22T17:26:07.665Z,16.95
2023-02-22T17:28:34.631Z,19.30
2023-02-22T17:31:02.285Z,18.30
2023-02-22T17:33:36.606Z,17.10
2023-02-22T17:36:05.402Z,19.75
2023-02-22T17:38:32.733Z,17.48
2023-02-22T17:41:01.445Z,17.27
2023-02-22T17:43:29.616Z,18.40
2023-02-22T17:45:57.048Z,18.60
2023-02-22T17:48:24.611Z,20.95
2023-02-22T17:50:53.294Z,19.73
2023-02-22T17:53:24.699Z,19.40
2023-02-22T17:55:52.552Z,19.73
2023-02-22T17:58:19.932Z,20.25
2023-02-22T18:00:50.309Z,18.90
2023-02-22T18:03:25.866Z,21.23
2023-02-22T18:08:25.481Z,20.38
2023-02-22T18:10:56.536Z,20.98
2023-02-22T18:13:27.439Z,20.38
2023-02-22T18:16:00.314Z,20.02
2023-02-22T18:18:27.698Z,20.83
2023-02-22T18:20:59.675Z,19.15
2023-02-22T18:23:29.843Z,19.10
2023-02-22T18:26:10.091Z,18.77
2023-02-22T18:28:37.838Z,18.67
2023-02-22T18:31:17.067Z,21.02
2023-02-22T18:33:46.786Z,19.58
2023-02-22T18:36:16.216Z,18.23
2023-02-22T18:38:44.557Z,19.58
2023-02-22T18:41:18.330Z,19.63
2023-02-22T18:43:46.753Z,21.05
2023-02-22T18:46:21.752Z,20.40
2023-02-22T18:48:55.459Z,21.00
2023-02-22T18:51:23.608Z,22.75
2023-02-22T18:53:54.946Z,20.77
2023-02-22T18:56:22.656Z,20.58
2023-02-22T18:59:02.053Z,21.83
2023-02-22T19:01:31.563Z,22.13
2023-02-22T19:04:00.384Z,22.58
2023-02-22T19:06:27.296Z,23.10
2023-02-22T19:08:54.300Z,23.23
2023-02-22T19:11:24.052Z,21.85
2023-02-22T19:13:54.579Z,20.92
2023-02-22T19:16:24.075Z,22.15
2023-02-22T19:18:57.227Z,21.65
2023-02-22T19:21:27.256Z,21.73
2023-02-22T19:26:29.175Z,22.75
2023-02-22T19:28:58.707Z,24.42
2023-02-22T19:31:31.320Z,25.27
2023-02-22T19:34:05.482Z,25.65
2023-02-22T19:36:32.832Z,27.83
2023-02-22T19:39:02.709Z,28.38
2023-02-22T19:41:30.468Z,31.33
2023-02-22T19:43:58.293Z,29.25
2023-02-22T19:46:25.325Z,29.02
2023-02-22T19:48:53.644Z,30.08
2023-02-22T19:51:26.107Z,30.40
2023-02-22T19:53:56.995Z,30.13
2023-02-22T19:56:27.331Z,29.95
2023-02-22T19:58:57.124Z,30.50
2023-02-22T20:01:33.131Z,31.13
2023-02-22T20:04:07.128Z,31.75
2023-02-22T20:06:41.646Z,34.83
2023-02-22T20:09:15.343Z,33.15
2023-02-22T20:11:42.641Z,34.30
2023-02-22T20:14:17.321Z,33.92
2023-02-22T20:16:44.550Z,32.92
2023-02-22T20:19:13.707Z,35.88
2023-02-22T20:21:40.864Z,35.53
2023-02-22T20:24:12.055Z,34.00
2023-02-22T20:26:40.175Z,33.78
2023-02-22T20:29:09.213Z,34.10
2023-02-22T20:31:38.025Z,35.08
2023-02-22T20:34:09.714Z,33.63
2023-02-22T20:36:39.537Z,36.97
2023-02-22T20:39:13.427Z,34.97
2023-02-22T20:41:46.140Z,36.97
2023-02-22T20:44:17.644Z,36.00
2023-02-22T20:46:46.286Z,37.47
2023-02-22T20:49:17.546Z,35.75
2023-02-22T20:51:46.188Z,36.55
2023-02-22T20:54:13.564Z,38.67
2023-02-22T20:56:43.598Z,36.30
2023-02-22T20:59:14.172Z,37.15
2023-02-22T21:01:42.232Z,38.58
2023-02-22T21:04:11.176Z,37.92
2023-02-22T21:06:39.656Z,36.55
2023-02-22T21:09:12.315Z,38.42
2023-02-22T21:11:40.158Z,37.53
2023-02-22T21:14:07.403Z,37.03
2023-02-22T21:16:36.990Z,39.05
2023-02-22T21:19:07.939Z,39.80
2023-02-22T21:21:35.710Z,37.55
2023-02-22T21:24:03.283Z,39.30
2023-02-22T21:26:33.765Z,39.90
2023-02-22T21:29:06.132Z,38.92
2023-02-22T21:31:36.741Z,40.25
2023-02-22T21:34:04.332Z,38.95
2023-02-22T21:36:32.191Z,39.30
2023-02-22T21:39:08.296Z,38.67
2023-02-22T21:41:39.203Z,41.17
2023-02-22T21:44:09.978Z,41.30
2023-02-22T21:46:37.240Z,41.40
2023-02-22T21:49:04.517Z,43.15
2023-02-22T21:51:33.244Z,42.65
2023-02-22T21:54:07.434Z,39.72
2023-02-22T21:56:39.807Z,42.33
2023-02-22T21:59:14.240Z,40.70
2023-02-22T22:01:49.857Z,39.67
2023-02-22T22:06:52.509Z,40.28
2023-02-22T22:09:21.966Z,40.13
2023-02-22T22:12:01.518Z,39.22
2023-02-22T22:14:28.742Z,39.60
2023-02-22T22:17:01.589Z,41.72
2023-02-22T22:19:31.291Z,42.53
2023-02-22T22:21:58.670Z,41.72
2023-02-22T22:24:28.739Z,39.53
2023-02-22T22:26:56.106Z,41.13
2023-02-22T22:29:28.550Z,41.13
2023-02-22T22:31:56.552Z,39.25
2023-02-22T22:34:29.638Z,40.40
2023-02-22T22:37:00.533Z,41.90
2023-02-22T22:39:27.744Z,42.80
2023-02-22T22:41:54.839Z,39.63
2023-02-22T22:44:24.616Z,39.28
2023-02-22T22:46:54.768Z,40.35
2023-02-22T22:49:23.717Z,42.08
2023-02-22T22:51:51.206Z,42.92
2023-02-22T22:54:18.654Z,42.80
2023-02-22T22:56:46.541Z,41.22
2023-02-22T22:59:13.670Z,42.28
2023-02-22T23:01:44.532Z,43.58
2023-02-22T23:04:17.032Z,41.45
2023-02-22T23:06:52.484Z,42.53
2023-02-22T23:09:29.673Z,39.95
2023-02-22T23:12:09.034Z,40.65
2023-02-22T23:14:44.025Z,36.83
2023-02-22T23:17:31.123Z,39.40
2023-02-22T23:19:58.667Z,40.08
2023-02-22T23:22:27.417Z,41.88
2023-02-22T23:24:54.591Z,39.03
2023-02-22T23:27:23.736Z,40.47
2023-02-22T23:29:50.738Z,40.58
2023-02-22T23:32:17.799Z,40.85
2023-02-22T23:34:44.912Z,40.40
2023-02-22T23:37:14.031Z,40.45
2023-02-22T23:39:41.200Z,38.45
2023-02-22T23:42:10.981Z,38.35
2023-02-22T23:44:39.920Z,38.20
2023-02-22T23:47:07.348Z,37.10
2023-02-22T23:49:38.325Z,39.72
2023-02-22T23:52:08.304Z,38.55
2023-02-22T23:54:36.899Z,43.03
2023-02-22T23:57:05.317Z,42.35
2023-02-22T23:59:33.807Z,41.40
